sensor_id;sensor_type;location;lat;lon;timestamp;temperature;humidity
1534;DHT22;760;48.822;9.304;2022-09-24T04:04:08;10.80;99.90
1534;DHT22;760;48.822;9.304;2022-09-24T04:06:34;10.90;99.90
1534;DHT22;760;48.822;9.304;2022-09-24T04:09:00;10.90;99.90
1534;DHT22;760;48.822;9.304;2022-09-24T04:11:25;10.90;99.90
1534;DHT22;760;48.822;9.304;2022-09-24T04:13:51;10.90;99.90
1534;DHT22;760;48.822;9.304;2022-09-24T04:16:17;10.90;99.90
1534;DHT22;760;48.822;9.304;2022-09-24T04:18:43;10.90;99.90
1534;DHT22;760;48.822;9.304;2022-09-24T04:21:09;10.90;99.90
1534;DHT22;760;48.822;9.304;2022-09-24T04:23:34;11.00;99.90
1534;DHT22;760;48.822;9.304;2022-09-24T04:26:00;11.00;99.90
1534;DHT22;760;48.822;9.304;2022-09-24T04:28:27;11.00;99.90
1534;DHT22;760;48.822;9.304;2022-09-24T04:30:53;11.10;99.90
1534;DHT22;760;48.822;9.304;2022-09-24T04:33:18;11.10;99.90
1534;DHT22;760;48.822;9.304;2022-09-24T04:35:44;11.10;99.90
1534;DHT22;760;48.822;9.304;2022-09-24T04:38:10;11.20;99.90
1534;DHT22;760;48.822;9.304;2022-09-24T04:40:36;11.20;99.90
1534;DHT22;760;48.822;9.304;2022-09-24T04:43:02;11.10;99.90
1534;DHT22;760;48.822;9.304;2022-09-24T04:45:30;11.20;99.90
1534;DHT22;760;48.822;9.304;2022-09-24T04:47:56;11.10;99.90
1534;DHT22;760;48.822;9.304;2022-09-24T04:50:29;11.10;99.90
1534;DHT22;760;48.822;9.304;2022-09-24T04:52:59;11.20;99.90
1534;DHT22;760;48.822;9.304;2022-09-24T04:55:25;11.20;99.90
1534;DHT22;760;48.822;9.304;2022-09-24T04:57:55;11.20;99.90
1534;DHT22;760;48.822;9.304;2022-09-24T05:00:21;11.20;99.90
1534;DHT22;760;48.822;9.304;2022-09-24T05:02:53;11.20;99.90
1534;DHT22;760;48.822;9.304;2022-09-24T05:05:19;11.30;99.90
1534;DHT22;760;48.822;9.304;2022-09-24T05:07:45;11.30;99.90
1534;DHT22;760;48.822;9.304;2022-09-24T05:10:10;11.30;99.90
1534;DHT22;760;48.822;9.304;2022-09-24T05:12:38;11.20;99.90
1534;DHT22;760;48.822;9.304;2022-09-24T05:15:04;11.30;99.90
1534;DHT22;760;48.822;9.304;2022-09-24T05:17:30;11.30;99.90
1534;DHT22;760;48.822;9.304;2022-09-24T05:19:55;11.30;99.90
1534;DHT22;760;48.822;9.304;2022-09-24T05:22:23;11.30;99.90
1534;DHT22;760;48.822;9.304;2022-09-24T05:24:49;11.30;99.90
1534;DHT22;760;48.822;9.304;2022-09-24T05:27:15;11.20;99.90
1534;DHT22;760;48.822;9.304;2022-09-24T05:29:42;11.30;99.90
1534;DHT22;760;48.822;9.304;2022-09-24T05:32:16;11.30;99.90
1534;DHT22;760;48.822;9.304;2022-09-24T05:34:43;11.30;99.90
1534;DHT22;760;48.822;9.304;2022-09-24T05:37:10;11.30;99.90
1534;DHT22;760;48.822;9.304;2022-09-24T05:39:37;11.40;99.90
1534;DHT22;760;48.822;9.304;2022-09-24T05:42:03;11.40;99.90
1534;DHT22;760;48.822;9.304;2022-09-24T05:44:29;11.40;99.90
1534;DHT22;760;48.822;9.304;2022-09-24T05:46:56;11.40;99.90
1534;DHT22;760;48.822;9.304;2022-09-24T05:49:23;11.50;99.90
1534;DHT22;760;48.822;9.304;2022-09-24T05:51:49;11.40;99.90
1534;DHT22;760;48.822;9.304;2022-09-24T05:54:16;11.50;99.90
1534;DHT22;760;48.822;9.304;2022-09-24T05:56:42;11.50;99.90
1534;DHT22;760;48.822;9.304;2022-09-24T05:59:08;11.50;99.90
1534;DHT22;760;48.822;9.304;2022-09-24T06:01:34;11.50;99.90
1534;DHT22;760;48.822;9.304;2022-09-24T06:04:00;11.60;99.90
1534;DHT22;760;48.822;9.304;2022-09-24T06:06:26;11.70;99.90
1534;DHT22;760;48.822;9.304;2022-09-24T06:08:52;11.70;99.90
1534;DHT22;760;48.822;9.304;2022-09-24T06:11:18;11.80;99.90
1534;DHT22;760;48.822;9.304;2022-09-24T06:13:46;11.90;99.90
1534;DHT22;760;48.822;9.304;2022-09-24T06:16:11;12.00;99.90
1534;DHT22;760;48.822;9.304;2022-09-24T06:18:40;12.00;99.90
1534;DHT22;760;48.822;9.304;2022-09-24T06:21:10;12.10;99.90
1534;DHT22;760;48.822;9.304;2022-09-24T06:23:37;12.20;99.90
1534;DHT22;760;48.822;9.304;2022-09-24T06:26:04;12.30;99.90
1534;DHT22;760;48.822;9.304;2022-09-24T06:28:31;12.40;99.90
1534;DHT22;760;48.822;9.304;2022-09-24T06:30:59;12.50;99.90
1534;DHT22;760;48.822;9.304;2022-09-24T06:33:25;12.70;99.90
1534;DHT22;760;48.822;9.304;2022-09-24T06:35:51;12.80;99.90
1534;DHT22;760;48.822;9.304;2022-09-24T06:38:18;12.90;99.90
1534;DHT22;760;48.822;9.304;2022-09-24T06:40:45;13.00;99.90
1534;DHT22;760;48.822;9.304;2022-09-24T06:43:11;13.00;99.90
1534;DHT22;760;48.822;9.304;2022-09-24T06:45:38;13.10;99.90
1534;DHT22;760;48.822;9.304;2022-09-24T06:48:06;13.10;99.90
1534;DHT22;760;48.822;9.304;2022-09-24T06:50:33;13.20;99.90
1534;DHT22;760;48.822;9.304;2022-09-24T06:52:59;13.20;99.90
1534;DHT22;760;48.822;9.304;2022-09-24T06:55:25;13.40;99.90
1534;DHT22;760;48.822;9.304;2022-09-24T06:58:01;13.40;99.90
1534;DHT22;760;48.822;9.304;2022-09-24T07:00:27;13.40;99.90
1534;DHT22;760;48.822;9.304;2022-09-24T07:02:53;13.50;99.90
1534;DHT22;760;48.822;9.304;2022-09-24T07:05:18;13.50;99.90
1534;DHT22;760;48.822;9.304;2022-09-24T07:07:44;13.50;99.90
1534;DHT22;760;48.822;9.304;2022-09-24T07:10:09;13.50;99.90
1534;DHT22;760;48.822;9.304;2022-09-24T07:12:35;13.60;99.90
1534;DHT22;760;48.822;9.304;2022-09-24T07:15:02;13.60;99.90
1534;DHT22;760;48.822;9.304;2022-09-24T07:17:28;13.70;99.90
1534;DHT22;760;48.822;9.304;2022-09-24T07:19:54;13.70;99.90
1534;DHT22;760;48.822;9.304;2022-09-24T07:22:20;13.80;99.90
1534;DHT22;760;48.822;9.304;2022-09-24T07:24:46;13.80;99.90
1534;DHT22;760;48.822;9.304;2022-09-24T07:27:13;13.80;99.90
1534;DHT22;760;48.822;9.304;2022-09-24T07:29:39;13.90;99.90
1534;DHT22;760;48.822;9.304;2022-09-24T07:32:05;13.90;99.90
1534;DHT22;760;48.822;9.304;2022-09-24T07:34:31;13.90;99.90
1534;DHT22;760;48.822;9.304;2022-09-24T07:36:57;14.00;99.90
1534;DHT22;760;48.822;9.304;2022-09-24T07:39:23;14.00;99.90
1534;DHT22;760;48.822;9.304;2022-09-24T07:41:49;14.00;99.90
1534;DHT22;760;48.822;9.304;2022-09-24T07:44:17;14.10;99.90
1534;DHT22;760;48.822;9.304;2022-09-24T07:46:46;14.10;99.90
1534;DHT22;760;48.822;9.304;2022-09-24T07:49:12;14.20;99.90
1534;DHT22;760;48.822;9.304;2022-09-24T07:51:38;14.30;99.90
1534;DHT22;760;48.822;9.304;2022-09-24T07:54:03;14.30;99.90
1534;DHT22;760;48.822;9.304;2022-09-24T07:56:30;14.30;99.90
1534;DHT22;760;48.822;9.304;2022-09-24T07:58:59;14.50;99.90
1534;DHT22;760;48.822;9.304;2022-09-24T08:01:25;14.60;99.90
1534;DHT22;760;48.822;9.304;2022-09-24T08:03:52;14.60;99.90
1534;DHT22;760;48.822;9.304;2022-09-24T08:06:19;14.70;99.90
1534;DHT22;760;48.822;9.304;2022-09-24T08:08:48;14.70;99.90
1534;DHT22;760;48.822;9.304;2022-09-24T08:11:15;14.80;99.90
1534;DHT22;760;48.822;9.304;2022-09-24T08:13:41;14.90;99.90
1534;DHT22;760;48.822;9.304;2022-09-24T08:16:07;15.00;99.90
1534;DHT22;760;48.822;9.304;2022-09-24T08:18:33;15.10;99.90
1534;DHT22;760;48.822;9.304;2022-09-24T08:21:05;15.30;99.90
1534;DHT22;760;48.822;9.304;2022-09-24T08:23:32;15.30;99.90
1534;DHT22;760;48.822;9.304;2022-09-24T08:25:58;15.40;99.90
1534;DHT22;760;48.822;9.304;2022-09-24T08:28:24;15.40;99.90
1534;DHT22;760;48.822;9.304;2022-09-24T08:30:50;15.50;99.90
1534;DHT22;760;48.822;9.304;2022-09-24T08:33:16;15.50;99.90
1534;DHT22;760;48.822;9.304;2022-09-24T08:35:41;15.50;99.90
1534;DHT22;760;48.822;9.304;2022-09-24T08:38:07;15.60;99.90
1534;DHT22;760;48.822;9.304;2022-09-24T08:43:45;15.80;99.90
1534;DHT22;760;48.822;9.304;2022-09-24T08:47:02;16.00;99.90
1534;DHT22;760;48.822;9.304;2022-09-24T08:49:33;16.30;99.90
1534;DHT22;760;48.822;9.304;2022-09-24T08:54:48;17.20;99.90
1534;DHT22;760;48.822;9.304;2022-09-24T08:57:16;17.60;99.90
1534;DHT22;760;48.822;9.304;2022-09-24T08:59:49;18.10;99.90
1534;DHT22;760;48.822;9.304;2022-09-24T09:05:08;19.50;99.90
1534;DHT22;760;48.822;9.304;2022-09-24T09:10:33;20.90;99.90
1534;DHT22;760;48.822;9.304;2022-09-24T09:13:22;21.60;99.90
1534;DHT22;760;48.822;9.304;2022-09-24T09:16:03;22.50;98.50
1534;DHT22;760;48.822;9.304;2022-09-24T09:18:38;23.00;96.10
1534;DHT22;760;48.822;9.304;2022-09-24T09:21:30;23.50;95.00
1534;DHT22;760;48.822;9.304;2022-09-24T09:23:59;23.60;94.40
1534;DHT22;760;48.822;9.304;2022-09-24T09:26:26;23.70;92.90
1534;DHT22;760;48.822;9.304;2022-09-24T09:28:57;23.60;93.70
1534;DHT22;760;48.822;9.304;2022-09-24T09:32:04;24.00;93.90
1534;DHT22;760;48.822;9.304;2022-09-24T09:42:46;24.70;91.60
1534;DHT22;760;48.822;9.304;2022-09-24T09:45:21;24.50;91.90
1534;DHT22;760;48.822;9.304;2022-09-24T09:47:53;24.20;92.00
1534;DHT22;760;48.822;9.304;2022-09-24T09:50:43;23.80;92.50
1534;DHT22;760;48.822;9.304;2022-09-24T09:53:23;23.50;92.90
1534;DHT22;760;48.822;9.304;2022-09-24T09:55:59;23.00;93.60
1534;DHT22;760;48.822;9.304;2022-09-24T10:01:03;22.20;94.60
1534;DHT22;760;48.822;9.304;2022-09-24T10:06:21;21.70;95.90
1534;DHT22;760;48.822;9.304;2022-09-24T10:08:47;21.40;96.40
1534;DHT22;760;48.822;9.304;2022-09-24T10:11:14;21.20;96.50
1534;DHT22;760;48.822;9.304;2022-09-24T10:13:40;21.00;97.00
1534;DHT22;760;48.822;9.304;2022-09-24T10:16:08;20.90;97.40
1534;DHT22;760;48.822;9.304;2022-09-24T10:18:48;20.70;98.00
1534;DHT22;760;48.822;9.304;2022-09-24T10:21:31;20.50;98.10
1534;DHT22;760;48.822;9.304;2022-09-24T10:24:05;20.40;98.80
1534;DHT22;760;48.822;9.304;2022-09-24T10:26:40;20.20;98.90
1534;DHT22;760;48.822;9.304;2022-09-24T10:29:19;20.10;99.20
1534;DHT22;760;48.822;9.304;2022-09-24T10:32:05;20.00;99.50
1534;DHT22;760;48.822;9.304;2022-09-24T10:34:32;19.80;99.90
1534;DHT22;760;48.822;9.304;2022-09-24T10:37:14;19.80;99.90
1534;DHT22;760;48.822;9.304;2022-09-24T10:39:40;19.80;99.90
1534;DHT22;760;48.822;9.304;2022-09-24T10:42:22;19.90;99.90
1534;DHT22;760;48.822;9.304;2022-09-24T10:44:48;19.90;99.90
1534;DHT22;760;48.822;9.304;2022-09-24T10:53:05;20.00;99.90
1534;DHT22;760;48.822;9.304;2022-09-24T10:55:43;19.90;99.90
1534;DHT22;760;48.822;9.304;2022-09-24T11:03:35;19.80;99.90
1534;DHT22;760;48.822;9.304;2022-09-24T11:08:50;19.90;99.90
1534;DHT22;760;48.822;9.304;2022-09-24T11:12:08;20.00;99.90
1534;DHT22;760;48.822;9.304;2022-09-24T11:20:43;20.00;99.90
1534;DHT22;760;48.822;9.304;2022-09-24T11:26:10;19.70;99.90
1534;DHT22;760;48.822;9.304;2022-09-24T11:31:40;19.70;99.90
1534;DHT22;760;48.822;9.304;2022-09-24T11:34:19;19.70;99.90
1534;DHT22;760;48.822;9.304;2022-09-24T11:37:15;19.70;99.90
1534;DHT22;760;48.822;9.304;2022-09-24T11:45:56;19.80;99.90
1534;DHT22;760;48.822;9.304;2022-09-24T11:53:58;19.40;99.90
1534;DHT22;760;48.822;9.304;2022-09-24T11:59:11;18.90;99.90
1534;DHT22;760;48.822;9.304;2022-09-24T12:01:47;18.60;99.90
1534;DHT22;760;48.822;9.304;2022-09-24T12:04:48;18.30;99.90
1534;DHT22;760;48.822;9.304;2022-09-24T12:07:25;18.10;99.90
1534;DHT22;760;48.822;9.304;2022-09-24T12:10:01;17.80;99.90
1534;DHT22;760;48.822;9.304;2022-09-24T12:12:33;17.70;99.90
1534;DHT22;760;48.822;9.304;2022-09-24T12:15:20;17.50;99.90
1534;DHT22;760;48.822;9.304;2022-09-24T12:17:50;17.40;99.90
1534;DHT22;760;48.822;9.304;2022-09-24T12:20:22;17.20;99.90
1534;DHT22;760;48.822;9.304;2022-09-24T12:22:57;17.20;99.90
1534;DHT22;760;48.822;9.304;2022-09-24T12:25:30;17.10;99.90
1534;DHT22;760;48.822;9.304;2022-09-24T12:27:57;17.10;99.90
1534;DHT22;760;48.822;9.304;2022-09-24T12:30:32;17.10;99.90
1534;DHT22;760;48.822;9.304;2022-09-24T12:33:37;17.20;99.90
1534;DHT22;760;48.822;9.304;2022-09-24T12:36:13;17.20;99.90
1534;DHT22;760;48.822;9.304;2022-09-24T12:38:53;17.10;99.90
1534;DHT22;760;48.822;9.304;2022-09-24T12:41:32;17.10;99.90
1534;DHT22;760;48.822;9.304;2022-09-24T12:44:00;17.10;99.90
1534;DHT22;760;48.822;9.304;2022-09-24T12:48:58;16.90;99.90
1534;DHT22;760;48.822;9.304;2022-09-24T12:51:33;16.90;99.90
1534;DHT22;760;48.822;9.304;2022-09-24T12:54:07;16.90;99.90
1534;DHT22;760;48.822;9.304;2022-09-24T12:56:39;16.80;99.90
1534;DHT22;760;48.822;9.304;2022-09-24T12:59:21;16.90;99.90
1534;DHT22;760;48.822;9.304;2022-09-24T13:01:47;16.90;99.90
1534;DHT22;760;48.822;9.304;2022-09-24T13:06:39;16.90;99.90
1534;DHT22;760;48.822;9.304;2022-09-24T13:09:31;16.90;99.90
1534;DHT22;760;48.822;9.304;2022-09-24T13:14:31;16.80;99.90
1534;DHT22;760;48.822;9.304;2022-09-24T13:16:57;16.80;99.90
1534;DHT22;760;48.822;9.304;2022-09-24T13:19:36;16.80;99.90
1534;DHT22;760;48.822;9.304;2022-09-24T13:22:03;16.90;99.90
1534;DHT22;760;48.822;9.304;2022-09-24T13:24:32;16.90;99.90
1534;DHT22;760;48.822;9.304;2022-09-24T13:32:41;17.10;99.90
1534;DHT22;760;48.822;9.304;2022-09-24T13:35:20;17.20;99.90
1534;DHT22;760;48.822;9.304;2022-09-24T13:37:52;17.20;99.90
1534;DHT22;760;48.822;9.304;2022-09-24T13:40:22;17.20;99.90
1534;DHT22;760;48.822;9.304;2022-09-24T13:42:58;17.20;99.90
1534;DHT22;760;48.822;9.304;2022-09-24T13:45:27;17.10;99.90
1534;DHT22;760;48.822;9.304;2022-09-24T13:53:16;17.00;99.90
1534;DHT22;760;48.822;9.304;2022-09-24T13:55:57;17.00;99.90
1534;DHT22;760;48.822;9.304;2022-09-24T13:58:27;17.00;99.90
1534;DHT22;760;48.822;9.304;2022-09-24T14:00:54;17.00;99.90
1534;DHT22;760;48.822;9.304;2022-09-24T14:03:25;17.10;99.90
1534;DHT22;760;48.822;9.304;2022-09-24T14:05:51;17.10;99.90
1534;DHT22;760;48.822;9.304;2022-09-24T14:08:20;17.10;99.90
1534;DHT22;760;48.822;9.304;2022-09-24T14:10:46;17.10;99.90
1534;DHT22;760;48.822;9.304;2022-09-24T14:13:22;17.10;99.90
1534;DHT22;760;48.822;9.304;2022-09-24T14:15:59;17.10;99.90
1534;DHT22;760;48.822;9.304;2022-09-24T14:18:31;17.10;99.90
1534;DHT22;760;48.822;9.304;2022-09-24T14:24:34;17.00;99.90
1534;DHT22;760;48.822;9.304;2022-09-24T14:26:50;17.00;99.90
1534;DHT22;760;48.822;9.304;2022-09-24T14:29:21;17.00;99.90
1534;DHT22;760;48.822;9.304;2022-09-24T14:31:51;17.00;99.90
1534;DHT22;760;48.822;9.304;2022-09-24T14:37:04;17.10;99.90
1534;DHT22;760;48.822;9.304;2022-09-24T14:39:36;17.10;99.90
1534;DHT22;760;48.822;9.304;2022-09-24T14:42:10;17.10;99.90
1534;DHT22;760;48.822;9.304;2022-09-24T14:44:39;17.10;99.90
1534;DHT22;760;48.822;9.304;2022-09-24T14:47:26;17.00;99.90
1534;DHT22;760;48.822;9.304;2022-09-24T14:49:52;17.00;99.90
1534;DHT22;760;48.822;9.304;2022-09-24T14:52:31;17.00;99.90
1534;DHT22;760;48.822;9.304;2022-09-24T14:55:18;17.00;99.90
1534;DHT22;760;48.822;9.304;2022-09-24T14:57:46;16.90;99.90
1534;DHT22;760;48.822;9.304;2022-09-24T15:00:27;17.00;99.90
1534;DHT22;760;48.822;9.304;2022-09-24T15:03:00;17.00;99.90
1534;DHT22;760;48.822;9.304;2022-09-24T15:05:28;16.90;99.90
1534;DHT22;760;48.822;9.304;2022-09-24T15:08:19;16.90;99.90
1534;DHT22;760;48.822;9.304;2022-09-24T15:10:58;16.80;99.90
1534;DHT22;760;48.822;9.304;2022-09-24T15:13:30;16.80;99.90
1534;DHT22;760;48.822;9.304;2022-09-24T15:16:17;16.80;99.90
1534;DHT22;760;48.822;9.304;2022-09-24T15:18:43;16.80;99.90
1534;DHT22;760;48.822;9.304;2022-09-24T15:21:09;16.80;99.90
1534;DHT22;760;48.822;9.304;2022-09-24T15:23:37;16.90;99.90
1534;DHT22;760;48.822;9.304;2022-09-24T15:26:03;16.90;99.90
1534;DHT22;760;48.822;9.304;2022-09-24T15:28:28;17.00;99.90
1534;DHT22;760;48.822;9.304;2022-09-24T15:30:56;17.00;99.90
1534;DHT22;760;48.822;9.304;2022-09-24T15:33:22;17.00;99.90
1534;DHT22;760;48.822;9.304;2022-09-24T15:35:47;17.00;99.90
1534;DHT22;760;48.822;9.304;2022-09-24T15:38:17;17.00;99.90
1534;DHT22;760;48.822;9.304;2022-09-24T15:40:43;17.10;99.90
1534;DHT22;760;48.822;9.304;2022-09-24T15:43:21;17.10;99.90
1534;DHT22;760;48.822;9.304;2022-09-24T15:45:47;17.10;99.90
1534;DHT22;760;48.822;9.304;2022-09-24T15:48:13;17.10;99.90
1534;DHT22;760;48.822;9.304;2022-09-24T15:50:39;17.10;99.90
1534;DHT22;760;48.822;9.304;2022-09-24T15:53:06;17.10;99.90
1534;DHT22;760;48.822;9.304;2022-09-24T15:55:33;17.00;99.90
1534;DHT22;760;48.822;9.304;2022-09-24T15:58:00;17.00;99.90
1534;DHT22;760;48.822;9.304;2022-09-24T16:00:27;16.90;99.90
1534;DHT22;760;48.822;9.304;2022-09-24T16:02:55;16.90;99.90
1534;DHT22;760;48.822;9.304;2022-09-24T16:05:21;16.90;99.90
1534;DHT22;760;48.822;9.304;2022-09-24T16:07:47;16.90;99.90
1534;DHT22;760;48.822;9.304;2022-09-24T16:10:14;16.90;99.90
1534;DHT22;760;48.822;9.304;2022-09-24T16:12:40;16.90;99.90
1534;DHT22;760;48.822;9.304;2022-09-24T16:15:07;16.90;99.90
1534;DHT22;760;48.822;9.304;2022-09-24T16:17:32;16.90;99.90
1534;DHT22;760;48.822;9.304;2022-09-24T16:19:58;16.90;99.90
1534;DHT22;760;48.822;9.304;2022-09-24T16:22:24;16.90;99.90
1534;DHT22;760;48.822;9.304;2022-09-24T16:24:50;16.90;99.90
1534;DHT22;760;48.822;9.304;2022-09-24T16:27:15;16.80;99.90
1534;DHT22;760;48.822;9.304;2022-09-24T16:29:41;16.80;99.90
1534;DHT22;760;48.822;9.304;2022-09-24T16:32:06;16.80;99.90
1534;DHT22;760;48.822;9.304;2022-09-24T16:34:32;16.70;99.90
1534;DHT22;760;48.822;9.304;2022-09-24T16:36:58;16.60;99.90
1534;DHT22;760;48.822;9.304;2022-09-24T16:39:24;16.50;99.90
1534;DHT22;760;48.822;9.304;2022-09-24T16:41:50;16.50;99.90
1534;DHT22;760;48.822;9.304;2022-09-24T16:44:16;16.40;99.90
1534;DHT22;760;48.822;9.304;2022-09-24T16:46:42;16.30;99.90
1534;DHT22;760;48.822;9.304;2022-09-24T16:49:08;16.20;99.90
1534;DHT22;760;48.822;9.304;2022-09-24T16:51:34;16.10;99.90
1534;DHT22;760;48.822;9.304;2022-09-24T16:54:00;16.10;99.90
1534;DHT22;760;48.822;9.304;2022-09-24T16:56:26;16.00;99.90
1534;DHT22;760;48.822;9.304;2022-09-24T16:58:52;15.90;99.90
1534;DHT22;760;48.822;9.304;2022-09-24T17:01:20;15.80;99.90
1534;DHT22;760;48.822;9.304;2022-09-24T17:03:57;15.80;99.90
1534;DHT22;760;48.822;9.304;2022-09-24T17:06:28;15.70;99.90
1534;DHT22;760;48.822;9.304;2022-09-24T17:08:55;15.60;99.90
1534;DHT22;760;48.822;9.304;2022-09-24T17:11:39;15.60;99.90
1534;DHT22;760;48.822;9.304;2022-09-24T17:14:06;15.50;99.90
1534;DHT22;760;48.822;9.304;2022-09-24T17:16:33;15.40;99.90
1534;DHT22;760;48.822;9.304;2022-09-24T17:18:59;15.40;99.90
1534;DHT22;760;48.822;9.304;2022-09-24T17:21:25;15.30;99.90
1534;DHT22;760;48.822;9.304;2022-09-24T17:23:50;15.20;99.90
1534;DHT22;760;48.822;9.304;2022-09-24T17:26:18;15.20;99.90
1534;DHT22;760;48.822;9.304;2022-09-24T17:28:45;15.20;99.90
1534;DHT22;760;48.822;9.304;2022-09-24T17:31:14;15.20;99.90
1534;DHT22;760;48.822;9.304;2022-09-24T17:33:40;15.10;99.90
1534;DHT22;760;48.822;9.304;2022-09-24T17:36:10;15.10;99.90
1534;DHT22;760;48.822;9.304;2022-09-24T17:38:37;15.10;99.90
1534;DHT22;760;48.822;9.304;2022-09-24T17:41:05;15.00;99.90
1534;DHT22;760;48.822;9.304;2022-09-24T17:43:31;15.00;99.90
1534;DHT22;760;48.822;9.304;2022-09-24T17:46:04;15.00;99.90
1534;DHT22;760;48.822;9.304;2022-09-24T17:48:35;15.00;99.90
1534;DHT22;760;48.822;9.304;2022-09-24T17:51:05;15.00;99.90
1534;DHT22;760;48.822;9.304;2022-09-24T17:53:32;15.00;99.90
1534;DHT22;760;48.822;9.304;2022-09-24T17:55:58;15.00;99.90
1534;DHT22;760;48.822;9.304;2022-09-24T17:58:24;15.00;99.90
1534;DHT22;760;48.822;9.304;2022-09-24T18:00:51;15.00;99.90
1534;DHT22;760;48.822;9.304;2022-09-24T18:03:17;15.00;99.90
1534;DHT22;760;48.822;9.304;2022-09-24T18:05:43;15.00;99.90
1534;DHT22;760;48.822;9.304;2022-09-24T18:08:09;15.00;99.90
1534;DHT22;760;48.822;9.304;2022-09-24T18:10:35;15.00;99.90
1534;DHT22;760;48.822;9.304;2022-09-24T18:13:01;15.00;99.90
1534;DHT22;760;48.822;9.304;2022-09-24T18:15:28;14.90;99.90
1534;DHT22;760;48.822;9.304;2022-09-24T18:17:55;15.00;99.90
1534;DHT22;760;48.822;9.304;2022-09-24T18:20:24;14.90;99.90
1534;DHT22;760;48.822;9.304;2022-09-24T18:22:50;14.90;99.90
1534;DHT22;760;48.822;9.304;2022-09-24T18:25:16;14.90;99.90
1534;DHT22;760;48.822;9.304;2022-09-24T18:27:43;14.90;99.90
1534;DHT22;760;48.822;9.304;2022-09-24T18:30:11;14.90;99.90
1534;DHT22;760;48.822;9.304;2022-09-24T18:32:38;14.90;99.90
1534;DHT22;760;48.822;9.304;2022-09-24T18:35:07;14.90;99.90
1534;DHT22;760;48.822;9.304;2022-09-24T18:37:34;14.90;99.90
1534;DHT22;760;48.822;9.304;2022-09-24T18:40:01;14.90;99.90
1534;DHT22;760;48.822;9.304;2022-09-24T18:42:27;14.80;99.90
1534;DHT22;760;48.822;9.304;2022-09-24T18:44:52;14.80;99.90
1534;DHT22;760;48.822;9.304;2022-09-24T18:47:18;14.80;99.90
1534;DHT22;760;48.822;9.304;2022-09-24T18:49:44;14.80;99.90
1534;DHT22;760;48.822;9.304;2022-09-24T18:52:11;14.80;99.90
1534;DHT22;760;48.822;9.304;2022-09-24T18:54:37;14.80;99.90
1534;DHT22;760;48.822;9.304;2022-09-24T18:57:03;14.80;99.90
1534;DHT22;760;48.822;9.304;2022-09-24T18:59:29;14.70;99.90
1534;DHT22;760;48.822;9.304;2022-09-24T19:02:03;14.70;99.90
1534;DHT22;760;48.822;9.304;2022-09-24T19:04:28;14.70;99.90
1534;DHT22;760;48.822;9.304;2022-09-24T19:06:54;14.60;99.90
1534;DHT22;760;48.822;9.304;2022-09-24T19:09:20;14.60;99.90
1534;DHT22;760;48.822;9.304;2022-09-24T19:11:46;14.50;99.90
1534;DHT22;760;48.822;9.304;2022-09-24T19:14:13;14.50;99.90
1534;DHT22;760;48.822;9.304;2022-09-24T19:16:43;14.50;99.90
1534;DHT22;760;48.822;9.304;2022-09-24T19:19:10;14.50;99.90
1534;DHT22;760;48.822;9.304;2022-09-24T19:21:36;14.60;99.90
1534;DHT22;760;48.822;9.304;2022-09-24T19:24:04;14.60;99.90
1534;DHT22;760;48.822;9.304;2022-09-24T19:26:32;14.50;99.90
1534;DHT22;760;48.822;9.304;2022-09-24T19:28:59;14.50;99.90
1534;DHT22;760;48.822;9.304;2022-09-24T19:31:28;14.50;99.90
1534;DHT22;760;48.822;9.304;2022-09-24T19:33:54;14.50;99.90
1534;DHT22;760;48.822;9.304;2022-09-24T19:36:20;14.60;99.90
1534;DHT22;760;48.822;9.304;2022-09-24T19:38:47;14.50;99.90
1534;DHT22;760;48.822;9.304;2022-09-24T19:43:40;14.50;99.90
1534;DHT22;760;48.822;9.304;2022-09-24T19:46:10;14.40;99.90
1534;DHT22;760;48.822;9.304;2022-09-24T19:48:38;14.40;99.90
1534;DHT22;760;48.822;9.304;2022-09-24T19:51:06;14.40;99.90
1534;DHT22;760;48.822;9.304;2022-09-24T19:53:33;14.40;99.90
1534;DHT22;760;48.822;9.304;2022-09-24T19:56:00;14.40;99.90
1534;DHT22;760;48.822;9.304;2022-09-24T19:58:28;14.30;99.90
1534;DHT22;760;48.822;9.304;2022-09-24T20:00:53;14.30;99.90
1534;DHT22;760;48.822;9.304;2022-09-24T20:03:19;14.30;99.90
1534;DHT22;760;48.822;9.304;2022-09-24T20:05:45;14.30;99.90
1534;DHT22;760;48.822;9.304;2022-09-24T20:08:12;14.30;99.90
1534;DHT22;760;48.822;9.304;2022-09-24T20:10:40;14.20;99.90
1534;DHT22;760;48.822;9.304;2022-09-24T20:13:06;14.20;99.90
1534;DHT22;760;48.822;9.304;2022-09-24T20:15:36;14.20;99.90
1534;DHT22;760;48.822;9.304;2022-09-24T20:18:02;14.20;99.90
1534;DHT22;760;48.822;9.304;2022-09-24T20:20:28;14.20;99.90
1534;DHT22;760;48.822;9.304;2022-09-24T20:22:53;14.20;99.90
1534;DHT22;760;48.822;9.304;2022-09-24T20:25:19;14.20;99.90
1534;DHT22;760;48.822;9.304;2022-09-24T20:28:05;14.20;99.90
1534;DHT22;760;48.822;9.304;2022-09-24T20:30:33;14.20;99.90
1534;DHT22;760;48.822;9.304;2022-09-24T20:32:59;14.10;99.90
1534;DHT22;760;48.822;9.304;2022-09-24T20:35:25;14.10;99.90
1534;DHT22;760;48.822;9.304;2022-09-24T20:37:51;14.10;99.90
1534;DHT22;760;48.822;9.304;2022-09-24T20:40:16;14.20;99.90
1534;DHT22;760;48.822;9.304;2022-09-24T20:42:42;14.10;99.90
1534;DHT22;760;48.822;9.304;2022-09-24T20:45:08;14.00;99.90
1534;DHT22;760;48.822;9.304;2022-09-24T20:47:33;14.00;99.90
1534;DHT22;760;48.822;9.304;2022-09-24T20:49:59;14.00;99.90
1534;DHT22;760;48.822;9.304;2022-09-24T20:52:25;13.90;99.90
1534;DHT22;760;48.822;9.304;2022-09-24T20:54:51;13.90;99.90
1534;DHT22;760;48.822;9.304;2022-09-24T20:57:16;13.90;99.90
1534;DHT22;760;48.822;9.304;2022-09-24T20:59:42;13.90;99.90
1534;DHT22;760;48.822;9.304;2022-09-24T21:02:09;13.90;99.90
1534;DHT22;760;48.822;9.304;2022-09-24T21:04:35;13.90;99.90
1534;DHT22;760;48.822;9.304;2022-09-24T21:07:01;13.90;99.90
1534;DHT22;760;48.822;9.304;2022-09-24T21:09:27;13.80;99.90
1534;DHT22;760;48.822;9.304;2022-09-24T21:11:53;13.80;99.90
1534;DHT22;760;48.822;9.304;2022-09-24T21:14:19;13.80;99.90
1534;DHT22;760;48.822;9.304;2022-09-24T21:16:45;13.80;99.90
1534;DHT22;760;48.822;9.304;2022-09-24T21:19:12;13.80;99.90
1534;DHT22;760;48.822;9.304;2022-09-24T21:21:39;13.70;99.90
1534;DHT22;760;48.822;9.304;2022-09-24T21:24:06;13.70;99.90
1534;DHT22;760;48.822;9.304;2022-09-24T21:26:35;13.60;99.90
1534;DHT22;760;48.822;9.304;2022-09-24T21:29:28;13.60;99.90
1534;DHT22;760;48.822;9.304;2022-09-24T21:31:53;13.60;99.90
1534;DHT22;760;48.822;9.304;2022-09-24T21:34:19;13.60;99.90
1534;DHT22;760;48.822;9.304;2022-09-24T21:36:45;13.60;99.90
1534;DHT22;760;48.822;9.304;2022-09-24T21:39:28;13.60;99.90
1534;DHT22;760;48.822;9.304;2022-09-24T21:41:54;13.60;99.90
1534;DHT22;760;48.822;9.304;2022-09-24T21:44:23;13.70;99.90
1534;DHT22;760;48.822;9.304;2022-09-24T21:46:50;13.70;99.90
1534;DHT22;760;48.822;9.304;2022-09-24T21:49:16;13.70;99.90
1534;DHT22;760;48.822;9.304;2022-09-24T21:51:43;13.70;99.90
1534;DHT22;760;48.822;9.304;2022-09-24T21:54:12;13.70;99.90
1534;DHT22;760;48.822;9.304;2022-09-24T21:56:38;13.70;99.90
1534;DHT22;760;48.822;9.304;2022-09-24T21:59:04;13.60;99.90
